createdAt,value
2022-12-09T00:00:39.673Z,-1.12
2022-12-09T00:01:49.831Z,-1.11
2022-12-09T00:02:52.197Z,-1.11
2022-12-09T00:03:55.500Z,-1.12
2022-12-09T00:04:57.566Z,-1.14
2022-12-09T00:05:59.720Z,-1.14
2022-12-09T00:07:01.718Z,-1.17
2022-12-09T00:08:03.867Z,-1.18
2022-12-09T00:09:06.265Z,-1.19
2022-12-09T00:10:08.984Z,-1.20
2022-12-09T00:11:11.588Z,-1.20
2022-12-09T00:12:13.364Z,-1.19
2022-12-09T00:13:15.323Z,-1.17
2022-12-09T00:14:17.106Z,-1.17
2022-12-09T00:15:18.839Z,-1.18
2022-12-09T00:16:22.860Z,-1.17
2022-12-09T00:17:24.985Z,-1.17
2022-12-09T00:18:26.908Z,-1.17
2022-12-09T00:19:28.736Z,-1.18
2022-12-09T00:20:30.631Z,-1.17
2022-12-09T00:21:34.216Z,-1.16
2022-12-09T00:22:35.962Z,-1.16
2022-12-09T00:23:37.716Z,-1.17
2022-12-09T00:24:39.551Z,-1.18
2022-12-09T00:25:41.363Z,-1.19
2022-12-09T00:26:43.468Z,-1.19
2022-12-09T00:27:45.384Z,-1.18
2022-12-09T00:28:50.438Z,-1.18
2022-12-09T00:29:52.294Z,-1.17
2022-12-09T00:30:54.150Z,-1.17
2022-12-09T00:31:56.221Z,-1.17
2022-12-09T00:32:58.849Z,-1.16
2022-12-09T00:34:04.486Z,-1.15
2022-12-09T00:35:06.583Z,-1.14
2022-12-09T00:36:13.117Z,-1.14
2022-12-09T00:37:14.985Z,-1.16
2022-12-09T00:38:16.720Z,-1.16
2022-12-09T00:39:19.408Z,-1.16
2022-12-09T00:40:21.743Z,-1.16
2022-12-09T00:41:24.908Z,-1.16
2022-12-09T00:42:26.804Z,-1.17
2022-12-09T00:43:28.844Z,-1.15
2022-12-09T00:44:30.997Z,-1.14
2022-12-09T00:45:32.775Z,-1.14
2022-12-09T00:46:34.800Z,-1.12
2022-12-09T00:47:36.965Z,-1.11
2022-12-09T00:48:39.699Z,-1.10
2022-12-09T00:49:41.710Z,-1.09
2022-12-09T00:50:46.157Z,-1.09
2022-12-09T00:51:48.311Z,-1.09
2022-12-09T00:52:50.246Z,-1.09
2022-12-09T00:53:54.950Z,-1.08
2022-12-09T00:54:57.276Z,-1.08
2022-12-09T00:56:00.290Z,-1.06
2022-12-09T00:57:02.404Z,-1.05
2022-12-09T00:58:04.988Z,-1.05
2022-12-09T00:59:06.730Z,-1.06
2022-12-09T01:00:10.131Z,-1.07
2022-12-09T01:01:12.479Z,-1.08
2022-12-09T01:02:14.900Z,-1.08
2022-12-09T01:03:18.777Z,-1.07
2022-12-09T01:04:20.891Z,-1.07
2022-12-09T01:05:22.767Z,-1.06
2022-12-09T01:06:26.855Z,-1.06
2022-12-09T01:07:29.016Z,-1.05
2022-12-09T01:08:30.990Z,-1.06
2022-12-09T01:09:34.871Z,-1.05
2022-12-09T01:10:39.563Z,-1.05
2022-12-09T01:11:41.661Z,-1.04
2022-12-09T01:12:44.053Z,-1.03
2022-12-09T01:13:48.347Z,-1.02
2022-12-09T01:14:50.149Z,-1.03
2022-12-09T01:15:52.055Z,-1.03
2022-12-09T01:16:54.212Z,-1.04
2022-12-09T01:17:56.957Z,-1.04
2022-12-09T01:19:02.663Z,-1.05
2022-12-09T01:20:09.683Z,-1.07
2022-12-09T01:21:12.198Z,-1.08
2022-12-09T01:22:15.456Z,-1.09
2022-12-09T01:23:17.413Z,-1.09
2022-12-09T01:24:20.446Z,-1.10
2022-12-09T01:25:29.060Z,-1.10
2022-12-09T01:26:31.156Z,-1.10
2022-12-09T01:27:33.232Z,-1.11
2022-12-09T01:28:37.704Z,-1.11
2022-12-09T01:29:39.534Z,-1.11
2022-12-09T01:30:41.407Z,-1.10
2022-12-09T01:31:43.597Z,-1.11
2022-12-09T01:32:47.019Z,-1.10
2022-12-09T01:33:49.229Z,-1.09
2022-12-09T01:34:51.794Z,-1.09
2022-12-09T01:35:54.999Z,-1.08
2022-12-09T01:36:56.870Z,-1.07
2022-12-09T01:37:58.662Z,-1.09
2022-12-09T01:39:01.341Z,-1.11
2022-12-09T01:40:09.454Z,-1.12
2022-12-09T01:41:11.851Z,-1.11
2022-12-09T01:42:21.034Z,-1.11
2022-12-09T01:43:22.892Z,-1.11
2022-12-09T01:44:26.617Z,-1.12
2022-12-09T01:45:31.864Z,-1.12
2022-12-09T01:46:34.018Z,-1.12
2022-12-09T01:47:36.766Z,-1.10
2022-12-09T01:48:43.584Z,-1.11
2022-12-09T01:49:48.305Z,-1.10
2022-12-09T01:50:59.024Z,-1.09
2022-12-09T01:52:18.007Z,-1.09
2022-12-09T01:53:25.734Z,-1.10
2022-12-09T01:54:28.275Z,-1.11
2022-12-09T01:55:30.318Z,-1.13
2022-12-09T01:56:36.017Z,-1.15
2022-12-09T01:57:39.180Z,-1.17
2022-12-09T01:58:41.771Z,-1.18
2022-12-09T01:59:45.940Z,-1.20
2022-12-09T02:00:48.735Z,-1.21
2022-12-09T02:01:57.374Z,-1.21
2022-12-09T02:03:01.131Z,-1.21
2022-12-09T02:04:04.047Z,-1.20
2022-12-09T02:05:07.481Z,-1.19
2022-12-09T02:06:10.549Z,-1.19
2022-12-09T02:07:12.418Z,-1.18
2022-12-09T02:08:17.394Z,-1.19
2022-12-09T02:09:20.756Z,-1.19
2022-12-09T02:10:23.309Z,-1.20
2022-12-09T02:12:10.022Z,-1.21
2022-12-09T02:13:23.617Z,-1.22
2022-12-09T02:14:39.481Z,-1.24
2022-12-09T02:15:55.319Z,-1.25
2022-12-09T02:17:32.950Z,-1.26
2022-12-09T02:18:46.163Z,-1.25
2022-12-09T02:20:04.224Z,-1.24
2022-12-09T02:21:14.439Z,-1.23
2022-12-09T02:22:23.416Z,-1.22
2022-12-09T02:23:39.970Z,-1.22
2022-12-09T02:24:59.126Z,-1.22
2022-12-09T02:26:27.333Z,-1.24
2022-12-09T02:27:55.567Z,-1.25
2022-12-09T02:29:36.232Z,-1.24
2022-12-09T02:31:07.500Z,-1.24
2022-12-09T02:32:38.434Z,-1.26
2022-12-09T02:33:53.278Z,-1.27
2022-12-09T02:35:25.213Z,-1.27
2022-12-09T02:36:36.374Z,-1.25
2022-12-09T02:38:06.929Z,-1.24
2022-12-09T02:39:10.528Z,-1.25
2022-12-09T02:40:21.935Z,-1.24
2022-12-09T02:41:28.710Z,-1.23
2022-12-09T02:42:36.650Z,-1.22
2022-12-09T02:43:49.647Z,-1.21
2022-12-09T02:44:53.979Z,-1.21
2022-12-09T02:46:00.378Z,-1.20
2022-12-09T02:47:08.340Z,-1.18
2022-12-09T02:48:16.552Z,-1.18
2022-12-09T02:49:25.180Z,-1.17
2022-12-09T02:50:34.015Z,-1.17
2022-12-09T02:51:42.382Z,-1.16
2022-12-09T02:52:47.834Z,-1.17
2022-12-09T02:53:58.465Z,-1.17
2022-12-09T02:55:07.139Z,-1.18
2022-12-09T02:56:10.163Z,-1.19
2022-12-09T02:57:19.398Z,-1.19
2022-12-09T02:58:21.312Z,-1.19
2022-12-09T02:59:23.376Z,-1.19
2022-12-09T03:00:27.260Z,-1.19
2022-12-09T03:01:45.661Z,-1.19
2022-12-09T03:02:53.645Z,-1.18
2022-12-09T03:03:56.020Z,-1.17
2022-12-09T03:05:13.678Z,-1.16
2022-12-09T03:06:19.995Z,-1.15
2022-12-09T03:08:08.056Z,-1.14
2022-12-09T03:09:18.617Z,-1.13
2022-12-09T03:10:54.164Z,-1.11
2022-12-09T03:12:05.113Z,-1.08
2022-12-09T03:13:26.119Z,-1.07
2022-12-09T03:14:37.980Z,-1.06
2022-12-09T03:15:49.983Z,-1.04
2022-12-09T03:17:06.402Z,-1.03
2022-12-09T03:18:15.950Z,-1.01
2022-12-09T03:19:47.827Z,-1.01
2022-12-09T03:20:51.293Z,-0.96
2022-12-09T03:21:58.560Z,-0.94
2022-12-09T03:23:05.735Z,-0.92
2022-12-09T03:24:13.356Z,-0.91
2022-12-09T03:25:24.184Z,-0.91
2022-12-09T03:26:33.875Z,-0.90
2022-12-09T03:28:02.031Z,-0.89
2022-12-09T03:29:12.168Z,-0.84
2022-12-09T03:30:15.295Z,-0.82
2022-12-09T03:31:21.844Z,-0.81
2022-12-09T03:32:28.327Z,-0.80
2022-12-09T03:33:32.405Z,-0.80
2022-12-09T03:34:42.406Z,-0.78
2022-12-09T03:35:52.998Z,-0.73
2022-12-09T03:36:58.380Z,-0.72
2022-12-09T03:38:06.097Z,-0.70
2022-12-09T03:39:14.345Z,-0.69
2022-12-09T03:40:24.286Z,-0.68
2022-12-09T03:41:31.478Z,-0.66
2022-12-09T03:42:46.190Z,-0.66
2022-12-09T03:43:58.622Z,-0.67
2022-12-09T03:45:09.555Z,-0.67
2022-12-09T03:46:11.592Z,-0.69
2022-12-09T03:47:13.689Z,-0.70
2022-12-09T03:48:16.034Z,-0.71
2022-12-09T03:49:18.994Z,-0.70
2022-12-09T03:50:27.367Z,-0.69
2022-12-09T03:51:38.224Z,-0.67
2022-12-09T03:52:53.428Z,-0.67
2022-12-09T03:54:17.315Z,-0.67
2022-12-09T03:55:19.858Z,-0.67
2022-12-09T03:56:31.742Z,-0.67
2022-12-09T03:57:40.519Z,-0.66
2022-12-09T03:58:48.159Z,-0.67
2022-12-09T04:00:01.611Z,-0.68
2022-12-09T04:01:04.314Z,-0.69
2022-12-09T04:02:07.636Z,-0.69
2022-12-09T04:03:14.750Z,-0.71
2022-12-09T04:04:17.473Z,-0.72
2022-12-09T04:05:20.986Z,-0.72
2022-12-09T04:06:24.718Z,-0.72
2022-12-09T04:07:26.605Z,-0.71
2022-12-09T04:08:28.390Z,-0.71
2022-12-09T04:09:30.771Z,-0.72
2022-12-09T04:10:32.647Z,-0.73
2022-12-09T04:11:35.027Z,-0.72
2022-12-09T04:12:36.874Z,-0.72
2022-12-09T04:13:38.902Z,-0.72
2022-12-09T04:14:40.902Z,-0.73
2022-12-09T04:15:43.008Z,-0.76
2022-12-09T04:16:45.376Z,-0.77
2022-12-09T04:17:47.631Z,-0.80
2022-12-09T04:18:49.852Z,-0.82
2022-12-09T04:19:51.772Z,-0.85
2022-12-09T04:20:53.665Z,-0.87
2022-12-09T04:21:55.473Z,-0.87
2022-12-09T04:22:57.295Z,-0.88
2022-12-09T04:23:59.635Z,-0.88
2022-12-09T04:25:01.474Z,-0.89
2022-12-09T04:26:03.827Z,-0.91
2022-12-09T04:27:05.733Z,-0.92
2022-12-09T04:28:07.610Z,-0.93
2022-12-09T04:29:11.533Z,-0.94
2022-12-09T04:30:13.857Z,-0.95
2022-12-09T04:31:18.344Z,-0.95
2022-12-09T04:32:20.993Z,-0.95
2022-12-09T04:33:23.008Z,-0.97
2022-12-09T04:34:24.799Z,-0.98
2022-12-09T04:35:27.734Z,-0.98
2022-12-09T04:36:30.377Z,-0.97
2022-12-09T04:37:33.334Z,-0.98
2022-12-09T04:38:35.400Z,-0.97
2022-12-09T04:39:37.408Z,-0.94
2022-12-09T04:40:39.680Z,-0.90
2022-12-09T04:41:41.503Z,-0.87
2022-12-09T04:42:43.577Z,-0.85
2022-12-09T04:43:45.765Z,-0.82
2022-12-09T04:44:47.550Z,-0.81
2022-12-09T04:45:49.404Z,-0.82
2022-12-09T04:46:51.366Z,-0.82
2022-12-09T04:47:53.445Z,-0.81
2022-12-09T04:48:55.648Z,-0.82
2022-12-09T04:49:57.791Z,-0.83
2022-12-09T04:51:00.038Z,-0.85
2022-12-09T04:52:02.013Z,-0.86
2022-12-09T04:53:04.426Z,-0.88
2022-12-09T04:54:06.628Z,-0.89
2022-12-09T04:55:09.937Z,-0.89
2022-12-09T04:56:14.787Z,-0.89
2022-12-09T04:57:17.625Z,-0.87
2022-12-09T04:58:19.580Z,-0.86
2022-12-09T04:59:21.636Z,-0.82
2022-12-09T05:00:24.267Z,-0.80
2022-12-09T05:01:30.694Z,-0.78
2022-12-09T05:02:33.998Z,-0.75
2022-12-09T05:03:36.884Z,-0.70
2022-12-09T05:04:39.372Z,-0.69
2022-12-09T05:05:41.722Z,-0.68
2022-12-09T05:06:44.070Z,-0.67
2022-12-09T05:07:46.987Z,-0.68
2022-12-09T05:08:50.030Z,-0.70
2022-12-09T05:09:52.308Z,-0.70
2022-12-09T05:10:54.584Z,-0.72
2022-12-09T05:11:59.880Z,-0.72
2022-12-09T05:13:02.202Z,-0.72
2022-12-09T05:14:04.342Z,-0.70
2022-12-09T05:15:07.046Z,-0.69
2022-12-09T05:16:16.366Z,-0.68
2022-12-09T05:17:19.134Z,-0.69
2022-12-09T05:18:21.540Z,-0.70
2022-12-09T05:19:23.771Z,-0.70
2022-12-09T05:20:29.796Z,-0.71
2022-12-09T05:21:31.970Z,-0.73
2022-12-09T05:22:34.139Z,-0.73
2022-12-09T05:23:37.036Z,-0.73
2022-12-09T05:24:41.107Z,-0.75
2022-12-09T05:25:43.353Z,-0.77
2022-12-09T05:26:45.246Z,-0.76
2022-12-09T05:27:47.198Z,-0.75
2022-12-09T05:28:50.694Z,-0.74
2022-12-09T05:29:53.150Z,-0.73
2022-12-09T05:30:59.758Z,-0.73
2022-12-09T05:32:01.715Z,-0.72
2022-12-09T05:33:05.202Z,-0.70
2022-12-09T05:34:07.716Z,-0.68
2022-12-09T05:35:09.785Z,-0.67
2022-12-09T05:36:14.493Z,-0.66
2022-12-09T05:37:16.632Z,-0.66
2022-12-09T05:38:18.488Z,-0.64
2022-12-09T05:39:20.432Z,-0.64
2022-12-09T05:40:22.400Z,-0.62
2022-12-09T05:41:25.219Z,-0.61
2022-12-09T05:42:27.572Z,-0.60
2022-12-09T05:43:29.720Z,-0.60
2022-12-09T05:44:31.739Z,-0.60
2022-12-09T05:45:33.537Z,-0.61
2022-12-09T05:46:35.560Z,-0.63
2022-12-09T05:47:38.133Z,-0.64
2022-12-09T05:48:40.969Z,-0.65
2022-12-09T05:49:43.379Z,-0.64
2022-12-09T05:50:45.605Z,-0.62
2022-12-09T05:51:47.845Z,-0.61
2022-12-09T05:52:49.608Z,-0.61
2022-12-09T05:53:52.437Z,-0.62
2022-12-09T05:54:54.826Z,-0.62
2022-12-09T05:55:57.468Z,-0.61
2022-12-09T05:57:01.475Z,-0.61
2022-12-09T05:58:03.407Z,-0.58
2022-12-09T05:59:05.532Z,-0.58
2022-12-09T06:00:08.714Z,-0.58
2022-12-09T06:01:16.752Z,-0.57
2022-12-09T06:02:18.976Z,-0.57
2022-12-09T06:03:20.939Z,-0.55
2022-12-09T06:04:23.663Z,-0.55
2022-12-09T06:05:25.813Z,-0.55
2022-12-09T06:06:30.248Z,-0.54
2022-12-09T06:07:34.810Z,-0.55
2022-12-09T06:08:37.318Z,-0.55
2022-12-09T06:09:39.553Z,-0.56
2022-12-09T06:10:42.402Z,-0.59
2022-12-09T06:11:44.381Z,-0.61
2022-12-09T06:12:46.604Z,-0.63
2022-12-09T06:13:49.708Z,-0.63
2022-12-09T06:14:52.686Z,-0.65
2022-12-09T06:15:54.815Z,-0.67
2022-12-09T06:16:57.314Z,-0.68
2022-12-09T06:17:59.633Z,-0.69
2022-12-09T06:19:02.116Z,-0.70
2022-12-09T06:20:05.251Z,-0.70
2022-12-09T06:21:10.813Z,-0.73
2022-12-09T06:22:12.800Z,-0.70
2022-12-09T06:23:14.873Z,-0.72
2022-12-09T06:24:17.222Z,-0.71
2022-12-09T06:25:19.275Z,-0.69
2022-12-09T06:26:27.567Z,-0.70
2022-12-09T06:27:29.808Z,-0.71
2022-12-09T06:28:32.054Z,-0.71
2022-12-09T06:29:34.275Z,-0.71
2022-12-09T06:30:36.665Z,-0.71
2022-12-09T06:31:38.725Z,-0.69
2022-12-09T06:32:40.843Z,-0.70
2022-12-09T06:33:59.576Z,-0.68
2022-12-09T06:35:02.226Z,-0.66
2022-12-09T06:36:05.998Z,-0.65
2022-12-09T06:37:08.127Z,-0.64
2022-12-09T06:38:10.323Z,-0.63
2022-12-09T06:39:13.727Z,-0.62
2022-12-09T06:40:15.797Z,-0.61
2022-12-09T06:41:17.971Z,-0.60
2022-12-09T06:42:20.140Z,-0.61
2022-12-09T06:43:22.996Z,-0.60
2022-12-09T06:44:25.726Z,-0.58
2022-12-09T06:45:27.601Z,-0.56
2022-12-09T06:46:29.740Z,-0.55
2022-12-09T06:47:32.009Z,-0.57
2022-12-09T06:48:34.012Z,-0.57
2022-12-09T06:49:36.172Z,-0.57
2022-12-09T06:50:38.529Z,-0.55
2022-12-09T06:51:40.583Z,-0.55
2022-12-09T06:52:42.819Z,-0.54
2022-12-09T06:53:46.861Z,-0.52
2022-12-09T06:54:48.782Z,-0.49
2022-12-09T06:55:50.725Z,-0.46
2022-12-09T06:56:52.648Z,-0.43
2022-12-09T06:57:54.579Z,-0.41
2022-12-09T06:58:56.751Z,-0.40
2022-12-09T06:59:59.343Z,-0.38
2022-12-09T07:01:13.765Z,-0.35
2022-12-09T07:02:16.061Z,-0.33
2022-12-09T07:03:18.215Z,-0.32
2022-12-09T07:04:20.546Z,-0.31
2022-12-09T07:05:24.296Z,-0.30
2022-12-09T07:06:29.567Z,-0.29
2022-12-09T07:07:32.377Z,-0.30
2022-12-09T07:08:34.934Z,-0.30
2022-12-09T07:09:37.011Z,-0.31
2022-12-09T07:10:40.059Z,-0.31
2022-12-09T07:11:43.232Z,-0.32
2022-12-09T07:12:45.234Z,-0.31
2022-12-09T07:13:47.283Z,-0.30
2022-12-09T07:14:49.751Z,-0.30
2022-12-09T07:15:51.655Z,-0.29
2022-12-09T07:16:53.889Z,-0.30
2022-12-09T07:17:56.336Z,-0.28
2022-12-09T07:18:59.364Z,-0.26
2022-12-09T07:20:06.621Z,-0.25
2022-12-09T07:21:14.515Z,-0.23
2022-12-09T07:22:16.659Z,-0.21
2022-12-09T07:23:18.480Z,-0.18
2022-12-09T07:24:20.601Z,-0.19
2022-12-09T07:25:23.349Z,-0.20
2022-12-09T07:26:25.188Z,-0.21
2022-12-09T07:27:27.507Z,-0.22
2022-12-09T07:28:29.375Z,-0.23
2022-12-09T07:29:33.046Z,-0.24
2022-12-09T07:30:37.988Z,-0.25
2022-12-09T07:31:39.919Z,-0.27
2022-12-09T07:32:42.857Z,-0.28
2022-12-09T07:33:45.285Z,-0.28
2022-12-09T07:34:47.333Z,-0.27
2022-12-09T07:35:49.558Z,-0.26
2022-12-09T07:36:51.405Z,-0.27
2022-12-09T07:37:55.388Z,-0.26
2022-12-09T07:39:26.335Z,-0.25
2022-12-09T07:40:28.221Z,-0.24
2022-12-09T07:41:31.054Z,-0.24
2022-12-09T07:42:33.079Z,-0.23
2022-12-09T07:43:38.098Z,-0.23
2022-12-09T07:44:40.640Z,-0.20
2022-12-09T07:45:42.735Z,-0.18
2022-12-09T07:46:44.870Z,-0.17
2022-12-09T07:47:47.537Z,-0.16
2022-12-09T07:48:50.336Z,-0.14
2022-12-09T07:49:52.769Z,-0.09
2022-12-09T07:50:54.566Z,-0.03
2022-12-09T07:51:56.705Z,0.01
2022-12-09T07:52:59.148Z,0.05
2022-12-09T07:54:01.085Z,0.09
2022-12-09T07:55:03.109Z,0.12
2022-12-09T07:56:09.210Z,0.15
2022-12-09T07:57:11.400Z,0.18
2022-12-09T07:58:13.541Z,0.17
2022-12-09T07:59:16.306Z,0.18
2022-12-09T08:00:18.989Z,0.20
2022-12-09T08:01:27.527Z,0.22
2022-12-09T08:02:29.588Z,0.26
2022-12-09T08:03:31.959Z,0.28
2022-12-09T08:04:36.298Z,0.29
2022-12-09T08:05:47.041Z,0.29
2022-12-09T08:06:49.266Z,0.31
2022-12-09T08:07:51.587Z,0.33
2022-12-09T08:08:54.785Z,0.35
2022-12-09T08:09:57.309Z,0.36
2022-12-09T08:11:15.526Z,0.37
2022-12-09T08:12:17.713Z,0.40
2022-12-09T08:13:21.129Z,0.43
2022-12-09T08:14:23.385Z,0.47
2022-12-09T08:15:25.575Z,0.50
2022-12-09T08:16:28.431Z,0.53
2022-12-09T08:17:31.012Z,0.56
2022-12-09T08:18:34.441Z,0.58
2022-12-09T08:19:37.143Z,0.59
2022-12-09T08:20:39.973Z,0.61
2022-12-09T08:21:42.414Z,0.64
2022-12-09T08:22:44.859Z,0.68
2022-12-09T08:23:47.979Z,0.71
2022-12-09T08:24:50.274Z,0.73
2022-12-09T08:25:56.751Z,0.73
2022-12-09T08:27:00.243Z,0.72
2022-12-09T08:28:02.323Z,0.72
2022-12-09T08:29:13.018Z,0.72
2022-12-09T08:30:17.055Z,0.75
2022-12-09T08:31:24.502Z,0.73
2022-12-09T08:32:27.084Z,0.72
2022-12-09T08:33:29.260Z,0.71
2022-12-09T08:34:31.594Z,0.70
2022-12-09T08:35:33.864Z,0.68
2022-12-09T08:36:37.018Z,0.64
2022-12-09T08:37:39.383Z,0.63
2022-12-09T08:38:42.077Z,0.61
2022-12-09T08:39:44.348Z,0.62
2022-12-09T08:40:46.326Z,0.64
2022-12-09T08:41:48.443Z,0.63
2022-12-09T08:42:50.677Z,0.65
2022-12-09T08:43:52.491Z,0.66
2022-12-09T08:45:00.337Z,0.67
2022-12-09T08:46:04.203Z,0.64
2022-12-09T08:47:06.128Z,0.62
2022-12-09T08:48:09.581Z,0.61
2022-12-09T08:49:12.805Z,0.62
2022-12-09T08:50:15.990Z,0.62
2022-12-09T08:51:18.485Z,0.64
2022-12-09T08:52:20.502Z,0.66
2022-12-09T08:53:22.792Z,0.68
2022-12-09T08:54:24.981Z,0.71
2022-12-09T08:55:27.731Z,0.72
2022-12-09T08:56:30.630Z,0.75
2022-12-09T08:57:32.566Z,0.78
2022-12-09T08:58:34.336Z,0.77
2022-12-09T08:59:41.847Z,0.74
2022-12-09T09:00:46.784Z,0.74
2022-12-09T09:01:49.534Z,0.76
2022-12-09T09:02:52.123Z,0.77
2022-12-09T09:03:54.135Z,0.74
2022-12-09T09:04:57.577Z,0.72
2022-12-09T09:06:09.726Z,0.73
2022-12-09T09:07:13.947Z,0.76
2022-12-09T09:08:15.932Z,0.78
2022-12-09T09:09:20.541Z,0.75
2022-12-09T09:10:22.532Z,0.72
2022-12-09T09:11:26.063Z,0.70
2022-12-09T09:12:28.564Z,0.67
2022-12-09T09:13:30.714Z,0.66
2022-12-09T09:14:32.914Z,0.64
2022-12-09T09:15:35.082Z,0.62
2022-12-09T09:16:41.196Z,0.62
2022-12-09T09:17:49.803Z,0.65
2022-12-09T09:18:54.425Z,0.65
2022-12-09T09:19:56.732Z,0.65
2022-12-09T09:20:59.614Z,0.67
2022-12-09T09:22:02.035Z,0.70
2022-12-09T09:23:04.449Z,0.74
2022-12-09T09:24:11.652Z,0.77
2022-12-09T09:25:14.552Z,0.80
2022-12-09T09:26:20.066Z,0.83
2022-12-09T09:27:22.373Z,0.86
2022-12-09T09:28:29.098Z,0.86
2022-12-09T09:29:34.213Z,0.86
2022-12-09T09:30:37.753Z,0.87
2022-12-09T09:31:40.873Z,0.90
2022-12-09T09:32:43.036Z,0.92
2022-12-09T09:33:45.559Z,0.89
2022-12-09T09:34:50.646Z,0.90
2022-12-09T09:36:05.528Z,0.91
2022-12-09T09:37:10.280Z,0.93
2022-12-09T09:38:12.047Z,0.93
2022-12-09T09:39:14.055Z,0.92
2022-12-09T09:40:16.808Z,0.91
2022-12-09T09:41:45.646Z,0.91
2022-12-09T09:42:51.657Z,0.94
2022-12-09T09:43:56.601Z,0.98
2022-12-09T09:45:03.126Z,0.99
2022-12-09T09:46:06.259Z,1.00
2022-12-09T09:47:37.861Z,1.00
2022-12-09T09:48:40.840Z,1.02
2022-12-09T09:49:52.538Z,1.07
2022-12-09T09:51:12.439Z,1.12
2022-12-09T09:52:19.192Z,1.15
2022-12-09T09:53:27.603Z,1.15
2022-12-09T09:54:29.886Z,1.16
2022-12-09T09:55:42.427Z,1.16
2022-12-09T09:57:03.646Z,1.16
2022-12-09T09:58:17.961Z,1.17
2022-12-09T09:59:32.839Z,1.21
2022-12-09T10:00:44.496Z,1.26
2022-12-09T10:02:02.376Z,1.30
2022-12-09T10:03:12.902Z,1.32
2022-12-09T10:04:24.621Z,1.34
2022-12-09T10:05:34.459Z,1.38
2022-12-09T10:06:52.112Z,1.41
2022-12-09T10:08:17.928Z,1.41
2022-12-09T10:09:32.179Z,1.40
2022-12-09T10:10:43.664Z,1.42
2022-12-09T10:12:03.766Z,1.45
2022-12-09T10:13:26.495Z,1.47
2022-12-09T10:14:42.047Z,1.50
2022-12-09T10:16:17.721Z,1.53
2022-12-09T10:17:35.449Z,1.52
2022-12-09T10:19:07.775Z,1.50
2022-12-09T10:20:18.952Z,1.55
2022-12-09T10:21:22.641Z,1.57
2022-12-09T10:22:30.650Z,1.61
2022-12-09T10:23:33.050Z,1.65
2022-12-09T10:24:40.478Z,1.70
2022-12-09T10:25:48.939Z,1.78
2022-12-09T10:27:16.636Z,1.84
2022-12-09T10:28:23.152Z,1.90
2022-12-09T10:29:45.814Z,1.97
2022-12-09T10:30:53.477Z,2.04
2022-12-09T10:31:56.079Z,2.08
2022-12-09T10:32:58.126Z,2.08
2022-12-09T10:34:00.975Z,2.10
2022-12-09T10:35:20.910Z,2.11
2022-12-09T10:36:32.130Z,2.12
2022-12-09T10:37:37.550Z,2.14
2022-12-09T10:38:41.957Z,2.15
2022-12-09T10:39:46.558Z,2.15
2022-12-09T10:40:57.126Z,2.17
2022-12-09T10:43:08.923Z,2.25
2022-12-09T10:44:23.959Z,2.23
2022-12-09T10:45:35.697Z,2.24
2022-12-09T10:46:56.588Z,2.28
2022-12-09T10:47:58.813Z,2.31
2022-12-09T10:49:04.106Z,2.34
2022-12-09T10:50:08.556Z,2.37
2022-12-09T10:51:15.784Z,2.38
2022-12-09T10:52:43.158Z,2.40
2022-12-09T10:53:53.971Z,2.40
2022-12-09T10:54:56.619Z,2.40
2022-12-09T10:56:01.965Z,2.41
2022-12-09T10:57:26.617Z,2.41
2022-12-09T10:58:31.106Z,2.40
2022-12-09T10:59:35.368Z,2.38
2022-12-09T11:00:38.365Z,2.42
2022-12-09T11:02:03.766Z,2.41
2022-12-09T11:03:26.266Z,2.42
2022-12-09T11:04:38.472Z,2.44
2022-12-09T11:05:43.054Z,2.45
2022-12-09T11:06:45.797Z,2.45
2022-12-09T11:07:50.510Z,2.48
2022-12-09T11:09:00.121Z,2.52
2022-12-09T11:10:02.136Z,2.58
2022-12-09T11:11:05.157Z,2.73
2022-12-09T11:12:34.762Z,2.97
2022-12-09T11:13:44.128Z,3.32
2022-12-09T11:15:20.620Z,3.47
2022-12-09T11:16:27.956Z,3.59
2022-12-09T11:17:34.020Z,3.66
2022-12-09T11:18:44.299Z,3.72
2022-12-09T11:19:52.383Z,3.80
2022-12-09T11:21:01.110Z,3.93
2022-12-09T11:22:39.617Z,4.09
2022-12-09T11:23:58.858Z,4.20
2022-12-09T11:25:31.097Z,4.12
2022-12-09T11:26:38.382Z,4.00
2022-12-09T11:27:56.292Z,3.91
2022-12-09T11:29:04.560Z,3.85
2022-12-09T11:30:30.742Z,3.86
2022-12-09T11:31:41.121Z,3.89
2022-12-09T11:33:15.576Z,3.89
2022-12-09T11:34:27.392Z,3.87
2022-12-09T11:35:44.977Z,3.80
2022-12-09T11:36:52.507Z,3.61
2022-12-09T11:37:54.985Z,3.49
2022-12-09T11:39:18.315Z,3.49
2022-12-09T11:40:20.987Z,3.54
2022-12-09T11:41:45.553Z,3.56
2022-12-09T11:42:53.152Z,3.61
2022-12-09T11:43:57.240Z,3.69
2022-12-09T11:45:19.699Z,3.71
2022-12-09T11:46:26.163Z,3.69
2022-12-09T11:48:21.620Z,3.68
2022-12-09T11:49:16.906Z,3.74
2022-12-09T11:50:25.196Z,3.84
2022-12-09T11:51:32.995Z,3.96
2022-12-09T11:52:34.870Z,4.03
2022-12-09T11:53:41.011Z,4.09
2022-12-09T11:54:54.465Z,4.18
2022-12-09T11:56:07.905Z,4.23
2022-12-09T11:57:30.632Z,4.25
2022-12-09T11:58:48.263Z,4.22
2022-12-09T11:59:59.354Z,4.17
2022-12-09T12:01:21.137Z,4.09
2022-12-09T12:02:25.853Z,4.01
2022-12-09T12:03:47.907Z,3.98
2022-12-09T12:05:21.643Z,3.97
2022-12-09T12:06:28.008Z,3.86
2022-12-09T12:07:37.434Z,3.74
2022-12-09T12:08:49.772Z,3.59
2022-12-09T12:09:58.044Z,3.52
2022-12-09T12:11:09.316Z,3.53
2022-12-09T12:12:37.973Z,3.59
2022-12-09T12:13:50.075Z,3.62
2022-12-09T12:14:51.873Z,3.61
2022-12-09T12:16:10.477Z,3.59
2022-12-09T12:17:24.644Z,3.56
2022-12-09T12:18:33.076Z,3.60
2022-12-09T12:19:39.440Z,3.64
2022-12-09T12:21:10.186Z,3.71
2022-12-09T12:22:33.556Z,3.88
2022-12-09T12:23:56.880Z,4.02
2022-12-09T12:25:27.475Z,4.20
2022-12-09T12:26:46.004Z,4.40
2022-12-09T12:28:25.271Z,4.54
2022-12-09T12:29:42.091Z,4.66
2022-12-09T12:31:22.456Z,4.76
2022-12-09T12:34:39.633Z,5.16
2022-12-09T12:36:18.593Z,5.34
2022-12-09T12:37:50.528Z,5.50
2022-12-09T12:39:21.287Z,5.60
2022-12-09T12:40:41.930Z,5.75
2022-12-09T12:42:23.485Z,5.95
2022-12-09T12:44:02.965Z,6.06
2022-12-09T12:45:48.031Z,6.04
2022-12-09T12:47:25.307Z,5.96
2022-12-09T12:48:42.225Z,5.78
2022-12-09T12:50:07.577Z,5.63
2022-12-09T12:51:30.402Z,5.40
2022-12-09T12:52:58.764Z,5.20
2022-12-09T12:54:31.853Z,5.05
2022-12-09T12:55:41.959Z,4.91
2022-12-09T12:57:04.998Z,4.90
2022-12-09T12:58:45.930Z,4.84
2022-12-09T13:00:16.215Z,4.69
2022-12-09T13:01:36.270Z,4.46
2022-12-09T13:03:09.825Z,4.22
2022-12-09T13:04:24.555Z,3.94
2022-12-09T13:05:33.985Z,3.71
2022-12-09T13:07:13.938Z,3.50
2022-12-09T13:08:37.613Z,3.27
2022-12-09T13:09:55.062Z,3.08
2022-12-09T13:11:04.540Z,2.92
2022-12-09T13:12:42.782Z,2.77
2022-12-09T13:13:59.079Z,2.59
2022-12-09T13:15:02.740Z,2.46
2022-12-09T13:16:28.747Z,2.34
2022-12-09T13:17:30.697Z,2.21
2022-12-09T13:18:36.632Z,2.11
2022-12-09T13:19:47.409Z,2.04
2022-12-09T13:20:52.660Z,1.97
2022-12-09T13:21:56.045Z,1.93
2022-12-09T13:23:14.508Z,1.91
2022-12-09T13:24:32.999Z,1.88
2022-12-09T13:26:10.645Z,1.87
2022-12-09T13:27:29.603Z,1.88
2022-12-09T13:28:44.493Z,1.85
2022-12-09T13:30:02.068Z,1.82
2022-12-09T13:31:09.493Z,1.76
2022-12-09T13:32:36.945Z,1.72
2022-12-09T13:33:48.293Z,1.67
2022-12-09T13:34:55.472Z,1.63
2022-12-09T13:36:30.347Z,1.59
2022-12-09T13:37:37.496Z,1.53
2022-12-09T13:38:42.656Z,1.50
2022-12-09T13:39:44.587Z,1.46
2022-12-09T13:40:46.427Z,1.44
2022-12-09T13:42:07.059Z,1.42
2022-12-09T13:43:18.842Z,1.37
2022-12-09T13:44:21.422Z,1.33
2022-12-09T13:45:33.777Z,1.32
2022-12-09T13:46:36.176Z,1.35
2022-12-09T13:47:37.998Z,1.37
2022-12-09T13:48:44.051Z,1.38
2022-12-09T13:49:58.642Z,1.38
2022-12-09T13:51:00.661Z,1.40
2022-12-09T13:52:02.783Z,1.40
2022-12-09T13:53:19.558Z,1.39
2022-12-09T13:54:28.153Z,1.38
2022-12-09T13:56:04.545Z,1.36
2022-12-09T13:57:30.084Z,1.36
2022-12-09T13:59:02.332Z,1.35
2022-12-09T14:00:15.385Z,1.35
2022-12-09T14:01:22.995Z,1.35
2022-12-09T14:02:27.680Z,1.35
2022-12-09T14:03:37.888Z,1.38
2022-12-09T14:05:15.682Z,1.35
2022-12-09T14:06:25.562Z,1.31
2022-12-09T14:07:48.046Z,1.30
2022-12-09T14:08:55.713Z,1.27
2022-12-09T14:09:58.419Z,1.24
2022-12-09T14:11:38.043Z,1.22
2022-12-09T14:12:44.273Z,1.16
2022-12-09T14:13:46.347Z,1.12
2022-12-09T14:14:53.554Z,1.09
2022-12-09T14:16:15.644Z,1.07
2022-12-09T14:17:37.350Z,1.05
2022-12-09T14:18:40.176Z,1.03
2022-12-09T14:19:50.890Z,1.01
2022-12-09T14:21:17.529Z,1.00
2022-12-09T14:22:19.804Z,0.97
2022-12-09T14:23:21.578Z,0.95
2022-12-09T14:24:23.820Z,0.94
2022-12-09T14:25:25.441Z,0.93
2022-12-09T14:26:53.462Z,0.92
2022-12-09T14:28:10.432Z,0.87
2022-12-09T14:29:46.074Z,0.82
2022-12-09T14:31:06.628Z,0.79
2022-12-09T14:32:29.159Z,0.76
2022-12-09T14:33:35.240Z,0.75
2022-12-09T14:34:41.573Z,0.73
2022-12-09T14:35:52.369Z,0.71
2022-12-09T14:37:05.724Z,0.70
2022-12-09T14:38:29.295Z,0.66
2022-12-09T14:39:44.010Z,0.62
2022-12-09T14:41:00.288Z,0.59
2022-12-09T14:42:20.514Z,0.56
2022-12-09T14:44:01.427Z,0.53
2022-12-09T14:45:16.573Z,0.52
2022-12-09T14:46:24.664Z,0.53
2022-12-09T14:47:30.829Z,0.54
2022-12-09T14:48:36.217Z,0.53
2022-12-09T14:49:48.326Z,0.51
2022-12-09T14:51:06.448Z,0.50
2022-12-09T14:52:29.536Z,0.50
2022-12-09T14:53:36.657Z,0.49
2022-12-09T14:54:47.757Z,0.48